createdAt,value
2022-08-09T00:00:11.318Z,75.70
2022-08-09T00:02:42.867Z,75.60
2022-08-09T00:06:17.860Z,75.40
2022-08-09T00:08:10.834Z,75.10
2022-08-09T00:10:41.785Z,75.20
2022-08-09T00:13:17.093Z,75.90
2022-08-09T00:15:59.249Z,76.00
2022-08-09T00:18:34.994Z,76.10
2022-08-09T00:21:08.343Z,76.40
2022-08-09T00:23:57.792Z,76.70
2022-08-09T00:26:29.918Z,77.10
2022-08-09T00:29:01.483Z,77.50
2022-08-09T00:31:58.111Z,77.90
2022-08-09T00:34:19.183Z,78.10
2022-08-09T00:36:47.935Z,78.60
2022-08-09T00:40:13.630Z,78.90
2022-08-09T00:44:10.359Z,79.30
2022-08-09T00:44:54.813Z,79.60
2022-08-09T00:47:23.841Z,79.90
2022-08-09T00:49:56.486Z,80.20
2022-08-09T00:52:30.583Z,80.50
2022-08-09T00:55:01.774Z,80.80
2022-08-09T00:57:34.481Z,81.00
2022-08-09T01:00:21.571Z,81.10
2022-08-09T01:02:54.760Z,81.10
2022-08-09T01:05:53.341Z,80.90
2022-08-09T01:08:26.899Z,80.70
2022-08-09T01:11:08.454Z,80.70
2022-08-09T01:13:58.655Z,80.70
2022-08-09T01:16:32.809Z,80.90
2022-08-09T01:19:17.082Z,80.90
2022-08-09T01:22:16.519Z,81.00
2022-08-09T01:24:55.015Z,81.20
2022-08-09T01:27:27.497Z,81.30
2022-08-09T01:30:01.307Z,81.50
2022-08-09T01:32:35.242Z,82.00
2022-08-09T01:35:28.391Z,82.40
2022-08-09T01:38:08.174Z,82.70
2022-08-09T01:40:44.803Z,83.40
2022-08-09T01:43:24.007Z,84.00
2022-08-09T01:45:54.596Z,84.90
2022-08-09T01:48:29.593Z,85.60
2022-08-09T01:51:00.735Z,85.90
2022-08-09T01:53:41.501Z,86.40
2022-08-09T01:56:12.140Z,86.70
2022-08-09T01:58:49.119Z,86.90
2022-08-09T02:01:19.426Z,87.00
2022-08-09T02:03:51.102Z,87.10
2022-08-09T02:06:45.572Z,87.40
2022-08-09T02:09:42.261Z,87.70
2022-08-09T02:12:13.422Z,88.20
2022-08-09T02:14:51.976Z,89.10
2022-08-09T02:17:59.968Z,88.80
2022-08-09T02:20:12.125Z,89.00
2022-08-09T02:22:51.490Z,89.30
2022-08-09T02:25:24.032Z,89.80
2022-08-09T02:28:00.575Z,90.00
2022-08-09T02:30:41.560Z,90.20
2022-08-09T02:33:17.033Z,90.50
2022-08-09T02:36:01.927Z,90.70
2022-08-09T02:38:37.302Z,90.80
2022-08-09T02:41:10.006Z,91.00
2022-08-09T02:43:54.526Z,91.20
2022-08-09T02:46:27.933Z,91.50
2022-08-09T02:48:59.887Z,91.80
2022-08-09T02:51:37.088Z,91.90
2022-08-09T02:54:12.315Z,92.20
2022-08-09T02:56:43.874Z,92.20
2022-08-09T02:59:26.196Z,92.60
2022-08-09T03:02:11.923Z,92.40
2022-08-09T03:04:42.437Z,92.50
2022-08-09T03:07:14.234Z,92.60
2022-08-09T03:09:54.360Z,92.80
2022-08-09T03:12:28.485Z,92.90
2022-08-09T03:14:57.809Z,92.90
2022-08-09T03:17:29.500Z,93.00
2022-08-09T03:20:05.077Z,93.20
2022-08-09T03:22:42.029Z,93.50
2022-08-09T03:25:21.833Z,93.60
2022-08-09T03:28:03.516Z,93.80
2022-08-09T03:30:33.408Z,94.00
2022-08-09T03:33:17.149Z,94.10
2022-08-09T03:36:12.613Z,94.30
2022-08-09T03:38:42.609Z,94.40
2022-08-09T03:41:15.075Z,94.50
2022-08-09T03:43:51.743Z,94.60
2022-08-09T03:46:32.363Z,94.80
2022-08-09T03:49:08.728Z,94.80
2022-08-09T03:51:57.432Z,95.00
2022-08-09T03:54:31.250Z,95.20
2022-08-09T03:57:04.488Z,95.40
2022-08-09T03:59:54.463Z,95.60
2022-08-09T04:02:26.428Z,95.80
2022-08-09T04:05:06.668Z,96.00
2022-08-09T04:07:53.071Z,96.20
2022-08-09T04:10:29.146Z,96.30
2022-08-09T04:13:00.685Z,96.50
2022-08-09T04:15:52.292Z,96.60
2022-08-09T04:18:19.249Z,96.50
2022-08-09T04:20:49.270Z,96.60
2022-08-09T04:23:17.882Z,96.60
2022-08-09T04:25:52.480Z,96.60
2022-08-09T04:28:30.637Z,96.70
2022-08-09T04:31:08.077Z,96.80
2022-08-09T04:33:52.653Z,96.90
2022-08-09T04:36:27.474Z,96.90
2022-08-09T04:38:57.086Z,96.90
2022-08-09T04:41:33.363Z,97.00
2022-08-09T04:44:07.177Z,96.90
2022-08-09T04:46:57.358Z,96.90
2022-08-09T04:49:52.079Z,96.90
2022-08-09T04:52:18.515Z,96.90
2022-08-09T04:54:55.071Z,96.70
2022-08-09T04:57:24.386Z,96.60
2022-08-09T04:59:54.267Z,96.60
2022-08-09T05:02:22.734Z,96.50
2022-08-09T05:04:52.463Z,96.40
2022-08-09T05:07:27.880Z,96.30
2022-08-09T05:10:02.070Z,96.30
2022-08-09T05:12:33.074Z,96.20
2022-08-09T05:15:03.659Z,96.10
2022-08-09T05:18:39.103Z,96.00
2022-08-09T05:20:30.003Z,95.70
2022-08-09T05:23:56.742Z,95.50
2022-08-09T05:25:50.885Z,95.50
2022-08-09T05:28:20.017Z,95.50
2022-08-09T05:30:48.554Z,95.30
2022-08-09T05:33:17.229Z,95.10
2022-08-09T05:35:46.844Z,94.80
2022-08-09T05:38:21.935Z,94.60
2022-08-09T05:40:50.935Z,94.20
2022-08-09T05:43:20.606Z,93.80
2022-08-09T05:45:55.681Z,93.50
2022-08-09T05:48:32.997Z,93.30
2022-08-09T05:51:43.072Z,93.10
2022-08-09T05:53:57.703Z,92.90
2022-08-09T05:56:27.956Z,92.40
2022-08-09T05:58:59.077Z,92.10
2022-08-09T06:01:33.547Z,91.90
2022-08-09T06:04:10.360Z,91.70
2022-08-09T06:06:45.131Z,91.50
2022-08-09T06:09:40.871Z,91.80
2022-08-09T06:12:08.087Z,91.10
2022-08-09T06:14:36.123Z,90.80
2022-08-09T06:17:09.428Z,90.90
2022-08-09T06:19:38.266Z,90.50
2022-08-09T06:22:15.256Z,90.30
2022-08-09T06:24:45.094Z,90.30
2022-08-09T06:27:15.528Z,90.30
2022-08-09T06:29:48.388Z,90.00
2022-08-09T06:32:53.406Z,89.40
2022-08-09T06:35:15.170Z,89.00
2022-08-09T06:37:52.913Z,88.20
2022-08-09T06:40:33.424Z,87.50
2022-08-09T06:43:02.187Z,87.30
2022-08-09T06:46:04.947Z,86.90
2022-08-09T06:48:30.416Z,86.70
2022-08-09T06:50:59.993Z,86.00
2022-08-09T06:53:38.055Z,85.70
2022-08-09T06:56:09.333Z,85.50
2022-08-09T07:00:47.620Z,85.00
2022-08-09T07:01:35.751Z,84.20
2022-08-09T07:04:20.042Z,83.50
2022-08-09T07:06:48.431Z,82.90
2022-08-09T07:09:55.405Z,82.80
2022-08-09T07:12:13.501Z,82.50
2022-08-09T07:14:45.902Z,81.10
2022-08-09T07:17:19.654Z,80.00
2022-08-09T07:19:48.012Z,79.30
2022-08-09T07:22:18.867Z,78.50
2022-08-09T07:25:05.049Z,78.30
2022-08-09T07:27:42.723Z,77.40
2022-08-09T07:30:24.518Z,76.90
2022-08-09T07:32:54.919Z,76.40
2022-08-09T07:35:23.144Z,76.00
2022-08-09T07:37:54.019Z,76.10
2022-08-09T07:40:37.361Z,75.30
2022-08-09T07:43:17.260Z,74.60
2022-08-09T07:45:45.262Z,73.40
2022-08-09T07:48:22.505Z,72.90
2022-08-09T07:51:10.052Z,71.70
2022-08-09T07:54:05.203Z,71.30
2022-08-09T07:56:44.622Z,70.70
2022-08-09T07:59:25.708Z,69.50
2022-08-09T08:02:02.186Z,69.00
2022-08-09T08:04:31.533Z,68.30
2022-08-09T08:07:15.216Z,68.00
2022-08-09T08:09:53.382Z,67.80
2022-08-09T08:12:27.854Z,67.60
2022-08-09T08:14:59.531Z,66.20
2022-08-09T08:17:52.313Z,66.10
2022-08-09T08:20:15.883Z,65.70
2022-08-09T08:22:44.405Z,65.10
2022-08-09T08:25:17.194Z,64.40
2022-08-09T08:27:49.870Z,63.90
2022-08-09T08:30:19.487Z,63.20
2022-08-09T08:32:53.633Z,63.10
2022-08-09T08:35:22.944Z,62.50
2022-08-09T08:38:04.509Z,62.40
2022-08-09T08:40:37.462Z,61.90
2022-08-09T08:43:08.966Z,61.00
2022-08-09T08:45:51.687Z,60.70
2022-08-09T08:48:22.809Z,60.50
2022-08-09T08:50:58.319Z,60.00
2022-08-09T08:53:32.141Z,59.40
2022-08-09T08:56:06.316Z,59.10
2022-08-09T08:58:36.800Z,58.50
2022-08-09T09:01:08.906Z,58.10
2022-08-09T09:03:50.791Z,57.70
2022-08-09T09:06:20.535Z,57.50
2022-08-09T09:08:52.427Z,57.50
2022-08-09T09:11:21.774Z,57.60
2022-08-09T09:13:57.377Z,56.90
2022-08-09T09:16:32.396Z,56.80
2022-08-09T09:19:36.827Z,56.80
2022-08-09T09:22:04.226Z,56.30
2022-08-09T09:24:38.000Z,56.30
2022-08-09T09:27:08.511Z,56.50
2022-08-09T09:30:08.486Z,56.20
2022-08-09T09:32:34.226Z,55.80
2022-08-09T09:35:09.164Z,55.30
2022-08-09T09:37:40.425Z,54.80
2022-08-09T09:40:11.572Z,54.80
2022-08-09T09:42:46.066Z,55.20
2022-08-09T09:45:26.387Z,54.30
2022-08-09T09:47:59.731Z,54.40
2022-08-09T09:50:49.424Z,54.00
2022-08-09T09:53:43.924Z,54.20
2022-08-09T09:56:19.853Z,53.30
2022-08-09T09:58:58.298Z,53.50
2022-08-09T10:01:30.252Z,52.90
2022-08-09T10:04:15.818Z,52.70
2022-08-09T10:06:46.826Z,52.70
2022-08-09T10:09:23.249Z,52.80
2022-08-09T10:12:11.389Z,52.90
2022-08-09T10:14:47.876Z,53.20
2022-08-09T10:17:51.134Z,52.60
2022-08-09T10:20:27.857Z,52.00
2022-08-09T10:23:17.483Z,52.50
2022-08-09T10:26:06.009Z,52.50
2022-08-09T10:28:37.457Z,52.00
2022-08-09T10:34:09.951Z,53.00
2022-08-09T10:36:42.106Z,53.10
2022-08-09T10:39:15.635Z,53.20
2022-08-09T10:41:47.553Z,53.30
2022-08-09T10:44:21.806Z,52.10
2022-08-09T10:48:07.102Z,52.00
2022-08-09T10:50:15.144Z,52.00
2022-08-09T10:53:05.014Z,51.70
2022-08-09T10:55:57.982Z,51.20
2022-08-09T10:58:37.411Z,50.70
2022-08-09T11:03:02.445Z,51.60
2022-08-09T11:04:30.856Z,51.80
2022-08-09T11:07:56.793Z,51.50
2022-08-09T11:10:38.756Z,51.30
2022-08-09T11:13:49.294Z,51.40
2022-08-09T11:16:35.692Z,50.70
2022-08-09T11:19:09.508Z,50.10
2022-08-09T11:22:16.644Z,49.30
2022-08-09T11:25:05.452Z,49.80
2022-08-09T11:28:04.978Z,50.40
2022-08-09T11:30:37.723Z,50.80
2022-08-09T11:33:12.839Z,49.20
2022-08-09T11:35:49.246Z,48.90
2022-08-09T11:38:22.202Z,49.20
2022-08-09T11:40:54.697Z,49.80
2022-08-09T11:43:42.807Z,49.80
2022-08-09T11:46:11.093Z,48.70
2022-08-09T11:48:49.521Z,49.10
2022-08-09T11:53:01.086Z,49.30
2022-08-09T11:54:28.246Z,49.20
2022-08-09T11:57:47.933Z,48.40
2022-08-09T12:00:29.166Z,48.90
2022-08-09T12:03:40.964Z,49.20
2022-08-09T12:05:50.374Z,49.50
2022-08-09T12:08:22.124Z,49.10
2022-08-09T12:10:53.667Z,49.40
2022-08-09T12:14:07.539Z,48.90
2022-08-09T12:16:30.395Z,49.30
2022-08-09T12:19:08.596Z,49.20
2022-08-09T12:21:48.365Z,48.90
2022-08-09T12:24:23.686Z,48.40
2022-08-09T12:29:13.078Z,48.50
2022-08-09T12:30:01.809Z,48.30
2022-08-09T12:32:44.456Z,48.30
2022-08-09T12:35:19.425Z,48.10
2022-08-09T12:37:52.433Z,48.20
2022-08-09T12:40:23.216Z,48.10
2022-08-09T12:42:53.710Z,47.80
2022-08-09T12:45:34.324Z,47.60
2022-08-09T12:48:19.909Z,48.00
2022-08-09T12:50:56.872Z,47.30
2022-08-09T12:53:32.369Z,47.90
2022-08-09T12:56:15.326Z,48.20
2022-08-09T12:59:10.894Z,48.50
2022-08-09T13:01:47.030Z,48.50
2022-08-09T13:04:36.579Z,48.60
2022-08-09T13:07:14.282Z,48.40
2022-08-09T13:09:52.577Z,47.70
2022-08-09T13:12:24.479Z,47.60
2022-08-09T13:14:55.075Z,47.30
2022-08-09T13:17:44.245Z,47.30
2022-08-09T13:20:22.803Z,46.90
2022-08-09T13:23:05.676Z,48.10
2022-08-09T13:25:42.465Z,47.80
2022-08-09T13:28:14.140Z,48.10
2022-08-09T13:32:14.294Z,48.00
2022-08-09T13:33:54.490Z,48.10
2022-08-09T13:36:41.321Z,48.10
2022-08-09T13:41:17.172Z,48.10
2022-08-09T13:42:03.820Z,48.30
2022-08-09T13:44:33.026Z,47.80
2022-08-09T13:47:24.323Z,47.90
2022-08-09T13:49:55.954Z,47.80
2022-08-09T13:52:26.856Z,47.10
2022-08-09T13:55:00.197Z,46.70
2022-08-09T13:57:39.291Z,46.40
2022-08-09T14:00:12.250Z,46.80
2022-08-09T14:03:04.170Z,47.10
2022-08-09T14:05:59.859Z,47.00
2022-08-09T14:08:22.150Z,47.10
2022-08-09T14:10:52.466Z,46.80
2022-08-09T14:14:15.857Z,46.80
2022-08-09T14:16:13.850Z,46.70
2022-08-09T14:18:45.368Z,46.80
2022-08-09T14:21:17.685Z,47.00
2022-08-09T14:23:54.231Z,47.20
2022-08-09T14:26:30.122Z,47.30
2022-08-09T14:29:01.586Z,47.00
2022-08-09T14:31:35.918Z,47.10
2022-08-09T14:34:31.354Z,46.70
2022-08-09T14:37:01.363Z,47.30
2022-08-09T14:39:40.021Z,47.80
2022-08-09T14:42:31.855Z,48.00
2022-08-09T14:46:38.791Z,48.20
2022-08-09T14:47:58.439Z,47.80
2022-08-09T14:50:30.714Z,47.70
2022-08-09T14:52:59.516Z,47.50
2022-08-09T14:55:32.113Z,47.30
2022-08-09T14:58:02.935Z,46.90
2022-08-09T15:00:31.997Z,46.60
2022-08-09T15:03:01.642Z,47.40
2022-08-09T15:05:31.772Z,47.10
2022-08-09T15:07:59.892Z,47.40
2022-08-09T15:10:31.770Z,47.60
2022-08-09T15:13:01.565Z,47.50
2022-08-09T15:15:34.350Z,47.90
2022-08-09T15:18:14.338Z,48.00
2022-08-09T15:21:57.307Z,48.10
2022-08-09T15:24:10.219Z,48.10
2022-08-09T15:26:31.129Z,47.30
2022-08-09T15:29:04.548Z,46.70
2022-08-09T15:31:41.440Z,47.00
2022-08-09T15:34:31.888Z,47.30
2022-08-09T15:36:59.746Z,47.80
2022-08-09T15:39:34.661Z,48.00
2022-08-09T15:42:04.868Z,48.30
2022-08-09T15:44:34.529Z,48.40
2022-08-09T15:47:03.219Z,48.30
2022-08-09T15:49:33.179Z,48.40
2022-08-09T15:52:05.555Z,48.00
2022-08-09T15:54:48.875Z,47.90
2022-08-09T15:57:35.195Z,47.70
2022-08-09T16:00:14.552Z,47.70
2022-08-09T16:02:48.090Z,47.80
2022-08-09T16:05:24.127Z,47.50
2022-08-09T16:07:52.049Z,47.80
2022-08-09T16:10:56.202Z,47.80
2022-08-09T16:13:21.057Z,48.00
2022-08-09T16:16:04.742Z,48.30
2022-08-09T16:18:45.215Z,48.50
2022-08-09T16:21:17.817Z,48.40
2022-08-09T16:23:55.410Z,48.10
2022-08-09T16:26:33.709Z,47.50
2022-08-09T16:29:10.360Z,47.80
2022-08-09T16:32:19.900Z,47.90
2022-08-09T16:34:29.031Z,48.20
2022-08-09T16:36:57.243Z,48.30
2022-08-09T16:39:26.327Z,48.40
2022-08-09T16:42:03.569Z,48.50
2022-08-09T16:44:34.294Z,48.70
2022-08-09T16:48:36.911Z,49.00
2022-08-09T16:50:29.423Z,48.60
2022-08-09T16:52:38.045Z,48.90
2022-08-09T16:55:08.086Z,49.10
2022-08-09T16:58:09.394Z,49.30
2022-08-09T17:00:29.705Z,49.20
2022-08-09T17:02:58.709Z,49.30
2022-08-09T17:06:07.434Z,49.00
2022-08-09T17:08:43.336Z,49.30
2022-08-09T17:11:02.566Z,49.50
2022-08-09T17:13:34.301Z,49.40
2022-08-09T17:16:04.109Z,49.30
2022-08-09T17:18:32.337Z,49.40
2022-08-09T17:21:00.233Z,49.40
2022-08-09T17:24:21.440Z,49.50
2022-08-09T17:26:17.486Z,49.60
2022-08-09T17:28:47.066Z,49.80
2022-08-09T17:31:16.501Z,50.20
2022-08-09T17:33:44.415Z,50.30
2022-08-09T17:36:21.458Z,50.60
2022-08-09T17:38:57.882Z,50.90
2022-08-09T17:41:38.709Z,51.20
2022-08-09T17:44:41.722Z,51.20
2022-08-09T17:46:57.737Z,51.30
2022-08-09T17:49:25.886Z,51.30
2022-08-09T17:51:58.635Z,51.40
2022-08-09T17:54:29.546Z,51.50
2022-08-09T17:56:58.019Z,51.50
2022-08-09T17:59:37.965Z,51.80
2022-08-09T18:02:14.757Z,51.90
2022-08-09T18:04:50.809Z,52.10
2022-08-09T18:07:23.356Z,52.30
2022-08-09T18:10:05.080Z,52.40
2022-08-09T18:12:40.773Z,52.50
2022-08-09T18:15:21.482Z,52.70
2022-08-09T18:18:25.318Z,52.90
2022-08-09T18:21:18.931Z,53.10
2022-08-09T18:24:09.976Z,53.40
2022-08-09T18:26:31.830Z,53.50
2022-08-09T18:30:39.574Z,53.70
2022-08-09T18:31:55.518Z,53.80
2022-08-09T18:34:28.820Z,54.00
2022-08-09T18:36:56.840Z,54.20
2022-08-09T18:39:31.947Z,54.60
2022-08-09T18:42:05.344Z,54.60
2022-08-09T18:44:36.998Z,55.10
2022-08-09T18:47:12.518Z,55.40
2022-08-09T18:49:46.696Z,55.70
2022-08-09T18:52:15.847Z,56.00
2022-08-09T18:54:49.731Z,56.60
2022-08-09T18:57:23.047Z,57.10
2022-08-09T18:59:57.563Z,57.40
2022-08-09T19:02:31.667Z,57.90
2022-08-09T19:05:14.791Z,58.30
2022-08-09T19:08:04.339Z,58.70
2022-08-09T19:10:39.632Z,59.10
2022-08-09T19:13:22.502Z,59.20
2022-08-09T19:15:52.121Z,59.40
2022-08-09T19:18:33.838Z,59.60
2022-08-09T19:21:09.579Z,59.80
2022-08-09T19:24:31.529Z,60.00
2022-08-09T19:26:29.402Z,60.10
2022-08-09T19:29:01.347Z,60.20
2022-08-09T19:31:30.371Z,60.30
2022-08-09T19:33:58.870Z,60.30
2022-08-09T19:36:30.782Z,60.40
2022-08-09T19:39:01.241Z,60.50
2022-08-09T19:41:35.661Z,60.80
2022-08-09T19:44:04.182Z,61.00
2022-08-09T19:46:35.601Z,61.30
2022-08-09T19:50:10.286Z,61.50
2022-08-09T19:51:55.205Z,61.80
2022-08-09T19:54:24.995Z,61.80
2022-08-09T19:56:53.393Z,61.90
2022-08-09T19:59:58.999Z,62.70
2022-08-09T20:02:36.218Z,63.70
2022-08-09T20:05:00.109Z,64.40
2022-08-09T20:07:57.039Z,65.20
2022-08-09T20:10:22.390Z,65.90
2022-08-09T20:13:02.222Z,66.70
2022-08-09T20:16:34.641Z,67.00
2022-08-09T20:18:19.687Z,67.60
2022-08-09T20:20:47.838Z,67.90
2022-08-09T20:23:21.149Z,68.30
2022-08-09T20:25:53.434Z,69.00
2022-08-09T20:28:27.741Z,68.80
2022-08-09T20:31:02.884Z,69.20
2022-08-09T20:33:39.295Z,69.60
2022-08-09T20:36:12.253Z,69.70
2022-08-09T20:39:29.213Z,69.80
2022-08-09T20:41:35.589Z,70.10
2022-08-09T20:44:09.913Z,70.40
2022-08-09T20:46:43.082Z,70.60
2022-08-09T20:49:13.699Z,71.00
2022-08-09T20:51:42.469Z,71.20
2022-08-09T20:54:16.617Z,71.40
2022-08-09T20:56:47.136Z,71.50
2022-08-09T20:59:17.829Z,71.30
2022-08-09T21:02:05.897Z,71.10
2022-08-09T21:05:54.546Z,71.00
2022-08-09T21:07:24.744Z,71.00
2022-08-09T21:09:59.733Z,71.10
2022-08-09T21:15:23.582Z,71.90
2022-08-09T21:18:23.237Z,72.50
2022-08-09T21:20:43.419Z,73.10
2022-08-09T21:23:18.229Z,73.70
2022-08-09T21:25:55.744Z,74.20
2022-08-09T21:28:33.436Z,74.70
2022-08-09T21:31:17.612Z,75.30
2022-08-09T21:33:51.033Z,75.50
2022-08-09T21:36:23.014Z,75.90
2022-08-09T21:38:58.102Z,76.00
2022-08-09T21:42:05.929Z,76.50
2022-08-09T21:44:33.731Z,76.90
2022-08-09T21:47:04.083Z,77.20
2022-08-09T21:49:39.289Z,77.30
2022-08-09T21:52:17.019Z,77.10
2022-08-09T21:54:51.132Z,77.00
2022-08-09T21:57:38.249Z,77.20
2022-08-09T22:00:10.978Z,77.60
2022-08-09T22:02:40.280Z,77.80
2022-08-09T22:05:22.949Z,77.80
2022-08-09T22:07:53.370Z,77.90
2022-08-09T22:10:23.365Z,78.10
2022-08-09T22:12:53.620Z,78.30
2022-08-09T22:15:23.356Z,78.30
2022-08-09T22:18:02.645Z,78.30
2022-08-09T22:20:31.186Z,78.60
2022-08-09T22:22:59.758Z,79.10
2022-08-09T22:26:05.281Z,79.70
2022-08-09T22:28:29.650Z,80.10
2022-08-09T22:31:00.760Z,80.80
2022-08-09T22:33:42.600Z,81.10
2022-08-09T22:36:19.225Z,81.40
2022-08-09T22:38:48.222Z,81.60
2022-08-09T22:41:16.298Z,81.60
2022-08-09T22:44:01.337Z,81.60
2022-08-09T22:48:16.515Z,81.50
2022-08-09T22:49:18.832Z,81.70
2022-08-09T22:51:49.650Z,82.10
2022-08-09T22:54:27.223Z,82.30
2022-08-09T22:56:57.116Z,82.40
2022-08-09T22:59:57.578Z,82.70
2022-08-09T23:02:20.341Z,83.20
2022-08-09T23:04:53.753Z,83.60
2022-08-09T23:08:22.592Z,84.10
2022-08-09T23:10:30.326Z,84.70
2022-08-09T23:12:58.802Z,85.40
2022-08-09T23:15:29.059Z,85.90
2022-08-09T23:17:57.469Z,86.00
2022-08-09T23:20:26.136Z,86.10
2022-08-09T23:22:54.143Z,86.40
2022-08-09T23:25:22.290Z,86.50
2022-08-09T23:27:57.207Z,86.50
2022-08-09T23:30:39.505Z,86.60
2022-08-09T23:33:19.042Z,86.90
2022-08-09T23:36:06.175Z,87.20
2022-08-09T23:38:34.974Z,87.30
2022-08-09T23:41:03.810Z,87.40
2022-08-09T23:43:31.692Z,87.50
2022-08-09T23:46:01.067Z,87.50
2022-08-09T23:48:29.062Z,87.60
2022-08-09T23:50:57.030Z,88.00
2022-08-09T23:53:25.590Z,87.50
2022-08-09T23:55:58.430Z,87.60
2022-08-09T23:58:29.944Z,87.60
